This is the latest recevied weather packets stored in our database for station/object N5ATR. If no packets are shown the sender has not sent any weather packets the latest 1 day(s).
| Time | Temp. | Humidity | Pressure | Rain* | Wind** | Luminosity | Snow |
|---|---|---|---|---|---|---|---|
| 1777999850 | 11.11° C | 59% | 1011.4 hPa | 0 mm | 0.45 m/s, 10° | 382 W/m² | - |
| 1777999546 | 11.11° C | 57% | 1011.3 hPa | 0 mm | 1.79 m/s, 299° | 584 W/m² | - |
| 1777999244 | 10.56° C | 59% | 1011.6 hPa | 0 mm | 0.89 m/s, 273° | 482 W/m² | - |
| 1777998943 | 10° C | 60% | 1011.7 hPa | 0 mm | 1.79 m/s, 316° | 304 W/m² | - |
| 1777998640 | 9.44° C | 62% | 1011.7 hPa | 0 mm | 1.79 m/s, 322° | 256 W/m² | - |
| 1777998338 | 10° C | 61% | 1011.8 hPa | 0 mm | 2.68 m/s, 349° | 200 W/m² | - |
| 1777998035 | 10° C | 60% | 1011.7 hPa | 0 mm | 3.58 m/s, 321° | 210 W/m² | - |
| 1777997732 | 10° C | 61% | 1012.3 hPa | 0 mm | 1.34 m/s, 323° | 183 W/m² | - |
| 1777997429 | 9.44° C | 61% | 1011.8 hPa | 0 mm | 1.79 m/s, 326° | 227 W/m² | - |
| 1777997127 | 9.44° C | 60% | 1012.1 hPa | 0 mm | 2.24 m/s, 325° | 186 W/m² | - |
| 1777996824 | 10° C | 59% | 1011.8 hPa | 0 mm | 2.68 m/s, 297° | 173 W/m² | - |
| 1777996520 | 10° C | 60% | 1011.8 hPa | 0 mm | 2.24 m/s, 318° | 207 W/m² | - |
| 1777996217 | 9.44° C | 61% | 1012.2 hPa | 0 mm | 1.79 m/s, 295° | 255 W/m² | - |
| 1777995913 | 10° C | 60% | 1012.2 hPa | 0 mm | 2.24 m/s, 342° | 206 W/m² | - |
| 1777995609 | 10° C | 61% | 1012.2 hPa | 0 mm | 1.79 m/s, 290° | 181 W/m² | - |
| 1777995307 | 10° C | 59% | 1012.2 hPa | 0 mm | 2.24 m/s, 287° | 179 W/m² | - |
| 1777995003 | 10° C | 59% | 1012.2 hPa | 0 mm | 1.79 m/s, 3° | 225 W/m² | - |
| 1777994701 | 10° C | 60% | 1012.1 hPa | 0 mm | 2.24 m/s, 310° | 282 W/m² | - |
| 1777994395 | 9.44° C | 59% | 1011.9 hPa | 0 mm | 2.24 m/s, 334° | 193 W/m² | - |
| 1777994091 | 9.44° C | 61% | 1012.1 hPa | 0 mm | 1.79 m/s, 310° | 186 W/m² | - |
| 1777993789 | 8.89° C | 62% | 1012.3 hPa | 0 mm | 1.79 m/s, 287° | 153 W/m² | - |
| 1777993485 | 8.89° C | 62% | 1012.1 hPa | 0 mm | 2.24 m/s, 330° | 154 W/m² | - |
| 1777993185 | 8.89° C | 62% | 1012.1 hPa | 0 mm | 3.13 m/s, 318° | 141 W/m² | - |
| 1777992883 | 8.89° C | 60% | 1012.1 hPa | 0 mm | 3.13 m/s, 265° | 123 W/m² | - |
| 1777992581 | 8.89° C | 61% | 1012.2 hPa | 0 mm | 2.24 m/s, 301° | 92 W/m² | - |
* Rain latest hour (hover to see other rain measurements)
** Current wind speed in m/s (hover to see current wind gust speed)